Time;durP1;ratioP1;P1;durP2;ratioP2;P2;SDS_P1;SDS_P2;PMS_P1;PMS_P2;Temp;Humidity;BMP_temperature;BMP_pressure;BME280_temperature;BME280_humidity;BME280_pressure;Samples;Min_cycle;Max_cycle;Signal;HPM_P1;HPM_P2
2022/04/05 04:59:49;;;;;;;3.53;2.10;;;;;;;-148.16;100.00;58328.31;4765278;29;20395;-59
2022/04/05 05:02:46;;;;;;;4.80;2.45;;;;;;;-148.16;100.00;58328.31;4822919;29;20771;-58
2022/04/05 05:05:30;;;;;;;5.35;2.13;;;;;;;-148.16;100.00;58328.31;4825749;29;20131;-60
2022/04/05 05:08:15;;;;;;;3.92;1.98;;;;;;;-148.16;100.00;58328.31;4812100;29;20053;-58
2022/04/05 05:11:00;;;;;;;7.55;1.90;;;;;;;-148.16;100.00;58328.31;4812425;29;20050;-64
2022/04/05 05:13:44;;;;;;;6.35;2.10;;;;;;;-148.16;100.00;58328.31;4812688;29;20054;-63
2022/04/05 05:16:29;;;;;;;5.97;2.20;;;;;;;-148.16;100.00;58328.31;4812870;29;20055;-62
2022/04/05 05:19:14;;;;;;;4.15;2.05;;;;;;;-148.16;100.00;58328.31;4826328;29;20042;-62
2022/04/05 05:21:58;;;;;;;3.15;1.70;;;;;;;-148.16;100.00;58328.31;4826517;29;20054;-63
2022/04/05 05:24:43;;;;;;;3.80;1.75;;;;;;;-148.16;100.00;58328.31;4826287;29;20078;-60
2022/04/05 05:27:28;;;;;;;4.63;1.70;;;;;;;-148.16;100.00;58328.31;4835594;29;20546;-63
2022/04/05 05:30:13;;;;;;;6.25;2.05;;;;;;;-148.16;100.00;58328.31;4831743;29;20493;-63
2022/04/05 05:32:58;;;;;;;7.28;2.10;;;;;;;-148.16;100.00;58328.31;4840697;29;20047;-63
2022/04/05 05:35:42;;;;;;;5.90;2.25;;;;;;;-148.16;100.00;58328.31;4825957;29;20042;-63
2022/04/05 05:38:27;;;;;;;3.47;1.70;;;;;;;-148.16;100.00;58328.31;4797130;29;20046;-62
2022/04/05 05:41:12;;;;;;;6.55;1.60;;;;;;;-148.16;100.00;58328.31;4807849;29;20418;-62
2022/04/05 05:43:57;;;;;;;3.63;2.13;;;;;;;-148.16;100.00;58328.31;4793779;29;20487;-64
2022/04/05 05:46:41;;;;;;;3.30;1.63;;;;;;;-148.16;100.00;58328.31;4793941;29;20076;-61
2022/04/05 05:49:26;;;;;;;3.13;1.83;;;;;;;-148.16;100.00;58328.31;4807883;29;20070;-63
2022/04/05 05:52:12;;;;;;;3.28;1.50;;;;;;;-148.16;100.00;58328.31;4807732;29;20078;-62
2022/04/05 05:54:56;;;;;;;3.83;1.70;;;;;;;-148.16;100.00;58328.31;4813810;29;20042;-63
2022/04/05 05:57:41;;;;;;;3.30;1.40;;;;;;;-148.16;100.00;58328.31;4795885;29;20050;-62
2022/04/05 06:00:26;;;;;;;4.18;1.38;;;;;;;-148.16;100.00;58328.31;4807078;29;20572;-60
2022/04/05 06:03:11;;;;;;;2.72;1.45;;;;;;;-148.16;100.00;58328.31;4820540;29;20474;-63
2022/04/05 06:05:56;;;;;;;3.90;1.40;;;;;;;-148.16;100.00;58328.31;4834859;29;20058;-62
2022/04/05 06:08:41;;;;;;;2.15;1.40;;;;;;;-148.16;100.00;58328.31;4822719;29;20046;-63
2022/04/05 06:11:26;;;;;;;3.78;1.40;;;;;;;-148.16;100.00;58328.31;4843419;29;20056;-62
2022/04/05 06:14:11;;;;;;;3.08;1.70;;;;;;;-148.16;100.00;58328.31;4796804;29;20498;-62
2022/04/05 06:16:56;;;;;;;4.60;1.55;;;;;;;-148.16;100.00;58328.31;4819758;29;20042;-62
2022/04/05 06:19:41;;;;;;;8.32;4.28;;;;;;;-148.16;100.00;58328.31;4789557;29;20147;-61
2022/04/05 06:22:25;;;;;;;7.13;3.40;;;;;;;-148.16;100.00;58328.31;4837142;29;20093;-59
2022/04/05 06:25:11;;;;;;;4.50;3.33;;;;;;;-148.16;100.00;58328.31;4837590;29;20050;-61
2022/04/05 06:27:57;;;;;;;4.85;2.60;;;;;;;-148.16;100.00;58328.31;4805999;29;20066;-60
2022/04/05 06:30:41;;;;;;;6.93;2.83;;;;;;;-148.16;100.00;58328.31;4819323;29;20066;-59
2022/04/05 06:33:27;;;;;;;5.35;3.13;;;;;;;-148.16;100.00;58328.31;4831108;29;20045;-59
2022/04/05 06:36:11;;;;;;;6.03;2.85;;;;;;;-148.16;100.00;58328.31;4829497;29;20053;-59
2022/04/05 06:38:56;;;;;;;7.07;4.13;;;;;;;-148.16;100.00;58328.31;4843274;29;20129;-60
2022/04/05 06:41:41;;;;;;;5.55;3.53;;;;;;;-148.16;100.00;58328.31;4806904;29;20054;-63
2022/04/05 06:44:26;;;;;;;5.18;3.40;;;;;;;-148.16;100.00;58328.31;4837272;29;20046;-63
2022/04/05 06:47:11;;;;;;;7.75;4.18;;;;;;;-148.16;100.00;58328.31;4827050;29;20433;-61
2022/04/05 06:49:56;;;;;;;6.75;2.97;;;;;;;-148.16;100.00;58328.31;4840313;29;20045;-61
2022/04/05 06:52:42;;;;;;;4.30;1.92;;;;;;;-148.16;100.00;58328.31;4811450;29;20460;-62
2022/04/05 06:55:27;;;;;;;4.07;2.60;;;;;;;-148.16;100.00;58328.31;4806524;29;20043;-61
2022/04/05 06:58:11;;;;;;;6.03;3.40;;;;;;;-148.16;100.00;58328.31;4806168;29;20079;-63
2022/04/05 07:00:56;;;;;;;5.70;2.75;;;;;;;-148.16;100.00;58328.31;4805008;29;20116;-61
2022/04/05 07:03:41;;;;;;;5.93;2.90;;;;;;;-148.16;100.00;58328.31;4804629;29;20053;-62
2022/04/05 07:06:25;;;;;;;5.13;2.83;;;;;;;-148.16;100.00;58328.31;4804375;29;20047;-60
2022/04/05 07:09:10;;;;;;;5.75;2.90;;;;;;;-148.16;100.00;58328.31;4804476;29;20050;-60
2022/04/05 07:11:55;;;;;;;5.28;2.83;;;;;;;-148.16;100.00;58328.31;4790890;29;20051;-61
2022/04/05 07:14:40;;;;;;;5.63;2.67;;;;;;;-148.16;100.00;58328.31;4804839;29;20051;-62
2022/04/05 07:17:25;;;;;;;4.28;2.60;;;;;;;-148.16;100.00;58328.31;4781263;29;20043;-62
2022/04/05 07:20:11;;;;;;;4.30;2.17;;;;;;;-148.16;100.00;58328.31;4806189;29;20055;-62
2022/04/05 07:22:56;;;;;;;4.70;2.40;;;;;;;-148.16;100.00;58328.31;4806232;29;20042;-62
2022/04/05 07:25:40;;;;;;;3.65;1.77;;;;;;;-148.16;100.00;58328.31;4805528;29;20042;-62
2022/04/05 07:28:25;;;;;;;2.75;1.65;;;;;;;-148.16;100.00;58328.31;4806187;29;20047;-62
2022/04/05 07:31:09;;;;;;;4.38;2.40;;;;;;;-148.16;100.00;58328.31;4805876;29;20053;-63
2022/04/05 07:33:54;;;;;;;5.82;2.30;;;;;;;-148.16;100.00;58328.31;4792351;29;20047;-62
2022/04/05 07:36:39;;;;;;;3.05;1.98;;;;;;;-148.16;100.00;58328.31;4792626;29;20051;-62
2022/04/05 07:39:24;;;;;;;4.32;2.08;;;;;;;-148.16;100.00;58328.31;4792490;29;20551;-61
2022/04/05 07:42:09;;;;;;;3.65;2.00;;;;;;;-148.16;100.00;58328.31;4792265;29;20042;-62
2022/04/05 07:44:53;;;;;;;3.50;1.45;;;;;;;-148.16;100.00;58328.31;4805781;29;20168;-63
2022/04/05 07:47:39;;;;;;;2.53;1.65;;;;;;;-148.16;100.00;58328.31;4805351;29;20050;-63
2022/04/05 07:50:24;;;;;;;6.32;2.00;;;;;;;-148.16;100.00;58328.31;4792200;29;20047;-63
2022/04/05 07:53:09;;;;;;;4.85;1.90;;;;;;;-148.16;100.00;58328.31;4805569;29;20079;-62
2022/04/05 07:55:56;;;;;;;2.90;1.95;;;;;;;-148.16;100.00;58328.31;4791936;29;20138;-62
2022/04/05 07:58:42;;;;;;;2.88;1.60;;;;;;;-148.16;100.00;58328.31;4805300;29;20043;-62
2022/04/05 08:01:29;;;;;;;2.72;1.70;;;;;;;-148.16;100.00;58328.31;4804694;29;20047;-63
2022/04/05 08:04:13;;;;;;;2.38;1.42;;;;;;;-148.16;100.00;58328.31;4805593;29;20054;-63
2022/04/05 08:06:58;;;;;;;2.88;1.83;;;;;;;-148.16;100.00;58328.31;4809521;29;20126;-63
2022/04/05 08:09:43;;;;;;;4.50;2.03;;;;;;;-148.16;100.00;58328.31;4824612;29;20062;-61
2022/04/05 08:12:35;;;;;;;3.20;1.80;;;;;;;-148.16;100.00;58328.31;4823947;29;20129;-62
2022/04/05 08:15:22;;;;;;;4.45;1.65;;;;;;;-148.16;100.00;58328.31;4823807;29;20063;-62
2022/04/05 08:18:06;;;;;;;5.20;1.67;;;;;;;-148.16;100.00;58328.31;4823472;29;20042;-63
2022/04/05 08:20:51;;;;;;;2.20;1.45;;;;;;;-148.16;100.00;58328.31;4823934;29;20439;-61
2022/04/05 08:23:36;;;;;;;3.58;1.63;;;;;;;-148.16;100.00;58328.31;4823615;29;20393;-62
2022/04/05 08:26:21;;;;;;;5.68;1.92;;;;;;;-148.16;100.00;58328.31;4823725;29;20057;-62
2022/04/05 08:29:06;;;;;;;5.18;1.75;;;;;;;-148.16;100.00;58328.31;4823822;29;20050;-62
2022/04/05 08:31:50;;;;;;;4.47;1.58;;;;;;;-148.16;100.00;58328.31;4809698;29;20075;-62
2022/04/05 08:34:38;;;;;;;4.13;1.75;;;;;;;-148.16;100.00;58328.31;4823674;29;20478;-62
2022/04/05 08:37:23;;;;;;;2.03;1.38;;;;;;;-148.16;100.00;58328.31;4823604;29;20482;-64
2022/04/05 08:40:09;;;;;;;3.53;1.55;;;;;;;-148.16;100.00;58328.31;4827213;29;20046;-62
2022/04/05 08:42:56;;;;;;;3.28;1.77;;;;;;;-148.16;100.00;58328.31;4826958;29;20516;-62
2022/04/05 08:45:45;;;;;;;4.40;2.15;;;;;;;-148.16;100.00;58328.31;4827009;29;20463;-62
2022/04/05 08:48:31;;;;;;;3.50;1.52;;;;;;;-148.16;100.00;58328.31;4826714;29;20410;-61
2022/04/05 08:51:15;;;;;;;3.33;1.77;;;;;;;-148.16;100.00;58328.31;4826832;29;20049;-61
2022/04/05 08:54:00;;;;;;;2.20;1.70;;;;;;;-148.16;100.00;58328.31;4826914;29;20057;-62
2022/04/05 08:56:47;;;;;;;2.70;1.50;;;;;;;-148.16;100.00;58328.31;4826930;29;20455;-62
2022/04/05 08:59:32;;;;;;;2.75;1.65;;;;;;;-148.16;100.00;58328.31;4800335;29;20235;-63
2022/04/05 09:02:26;;;;;;;3.05;1.65;;;;;;;-148.16;100.00;58328.31;4826493;29;20456;-62
2022/04/05 09:05:25;;;;;;;2.15;1.40;;;;;;;-148.16;100.00;58328.31;4826317;29;20383;-63
2022/04/05 09:08:23;;;;;;;2.70;1.58;;;;;;;-148.16;100.00;58328.31;4826433;29;20604;-62
2022/04/05 09:11:12;;;;;;;2.65;0.90;;;;;;;-148.16;100.00;58328.31;4826351;29;20414;-63
2022/04/05 09:13:58;;;;;;;3.95;1.70;;;;;;;-148.16;100.00;58328.31;4826253;29;20047;-61
2022/04/05 09:16:43;;;;;;;3.08;1.50;;;;;;;-148.16;100.00;58328.31;4812749;29;20453;-63
2022/04/05 09:19:42;;;;;;;4.78;1.52;;;;;;;-148.16;100.00;58328.31;4812865;29;20474;-62
2022/04/05 09:22:32;;;;;;;2.67;1.27;;;;;;;-148.16;100.00;58328.31;4826138;29;20081;-63
2022/04/05 09:25:18;;;;;;;2.15;1.20;;;;;;;-148.16;100.00;58328.31;4812541;29;20072;-61
2022/04/05 09:28:05;;;;;;;4.72;1.67;;;;;;;-148.16;100.00;58328.31;4826284;29;20047;-61
2022/04/05 09:30:51;;;;;;;3.45;2.17;;;;;;;-148.16;100.00;58328.31;4826253;29;20068;-61
2022/04/05 09:33:40;;;;;;;2.30;1.58;;;;;;;-148.16;100.00;58328.31;4812524;29;20471;-61
2022/04/05 09:36:32;;;;;;;2.40;1.42;;;;;;;-148.16;100.00;58328.31;4826307;29;20043;-63
2022/04/05 09:39:17;;;;;;;2.17;1.40;;;;;;;-148.16;100.00;58328.31;4825972;29;20490;-61
2022/04/05 09:42:07;;;;;;;4.20;1.65;;;;;;;-148.16;100.00;58328.31;4811945;29;20043;-62
2022/04/05 09:44:53;;;;;;;4.85;1.23;;;;;;;-148.16;100.00;58328.31;4825793;29;20054;-63
2022/04/05 09:47:37;;;;;;;3.00;1.30;;;;;;;-148.16;100.00;58328.31;4799269;29;20455;-60
2022/04/05 09:50:22;;;;;;;1.38;0.68;;;;;;;-148.16;100.00;58328.31;4824904;29;20077;-62
2022/04/05 09:53:07;;;;;;;2.17;1.58;;;;;;;-148.16;100.00;58328.31;4825449;29;20050;-64
2022/04/05 09:56:02;;;;;;;3.63;1.33;;;;;;;-148.16;100.00;58328.31;4825574;29;20057;-65
2022/04/05 09:59:03;;;;;;;2.30;1.10;;;;;;;-148.16;100.00;58328.31;4811710;29;20050;-64
2022/04/05 10:01:49;;;;;;;2.17;1.08;;;;;;;-148.16;100.00;58328.31;4825421;29;20456;-62
2022/04/05 10:04:35;;;;;;;1.35;0.98;;;;;;;-148.16;100.00;58328.31;4799127;29;20047;-62
2022/04/05 10:07:20;;;;;;;2.22;1.25;;;;;;;-148.16;100.00;58328.31;4811740;29;20038;-63
2022/04/05 10:10:07;;;;;;;1.85;1.00;;;;;;;-148.16;100.00;58328.31;4811878;29;20049;-64
2022/04/05 10:12:52;;;;;;;2.40;1.25;;;;;;;-148.16;100.00;58328.31;4825908;29;20062;-61
2022/04/05 10:15:37;;;;;;;1.17;0.60;;;;;;;-148.16;100.00;58328.31;4812374;29;20081;-64
2022/04/05 10:18:31;;;;;;;1.65;0.98;;;;;;;-148.16;100.00;58328.31;4798603;29;20054;-64
2022/04/05 10:21:28;;;;;;;1.45;0.80;;;;;;;-148.16;100.00;58328.31;4812806;29;20038;-63
2022/04/05 10:24:32;;;;;;;4.53;0.85;;;;;;;-148.16;100.00;58328.31;4825693;29;20058;-64
2022/04/05 10:27:21;;;;;;;1.25;0.80;;;;;;;-148.16;100.00;58328.31;4825366;29;20069;-63
2022/04/05 10:30:18;;;;;;;1.80;1.00;;;;;;;-148.16;100.00;58328.31;4825995;29;20054;-63
2022/04/05 10:33:24;;;;;;;1.67;1.10;;;;;;;-148.16;100.00;58328.31;4825041;29;20051;-63
2022/04/05 10:36:09;;;;;;;1.90;0.88;;;;;;;-148.16;100.00;58328.31;4825281;29;20050;-63
2022/04/05 10:39:16;;;;;;;1.48;0.80;;;;;;;-148.16;100.00;58328.31;4825551;29;20133;-63
2022/04/05 10:42:11;;;;;;;1.73;0.90;;;;;;;-148.16;100.00;58328.31;4825292;29;20506;-63
2022/04/05 10:45:15;;;;;;;1.23;0.70;;;;;;;-148.16;100.00;58328.31;4825009;29;20444;-63
2022/04/05 10:48:18;;;;;;;1.20;0.75;;;;;;;-148.16;100.00;58328.31;4825085;29;20050;-64
2022/04/05 10:51:30;;;;;;;1.70;0.88;;;;;;;-148.16;100.00;58328.31;4824924;29;20073;-61
2022/04/05 10:54:19;;;;;;;0.75;0.43;;;;;;;-148.16;100.00;58328.31;4824765;29;20043;-62
2022/04/05 10:57:26;;;;;;;3.40;0.95;;;;;;;-148.16;100.00;58328.31;4805296;29;20495;-63
2022/04/05 11:00:26;;;;;;;0.73;0.50;;;;;;;-148.16;100.00;58328.31;4805634;29;20115;-62
2022/04/05 11:03:11;;;;;;;1.38;0.80;;;;;;;-148.16;100.00;58328.31;4806374;29;20075;-62
2022/04/05 11:06:03;;;;;;;1.33;0.68;;;;;;;-148.16;100.00;58328.31;4806323;29;20043;-62
2022/04/05 11:08:51;;;;;;;1.02;0.45;;;;;;;-148.16;100.00;58328.31;4823757;29;20411;-62
2022/04/05 11:11:38;;;;;;;0.90;0.55;;;;;;;-148.16;100.00;58328.31;4824589;29;20141;-63
2022/04/05 11:14:41;;;;;;;1.30;0.68;;;;;;;-148.16;100.00;58328.31;4824696;29;20058;-62
2022/04/05 11:17:28;;;;;;;1.23;0.60;;;;;;;-148.16;100.00;58328.31;4824462;29;20410;-62
2022/04/05 11:20:14;;;;;;;1.05;0.80;;;;;;;-148.16;100.00;58328.31;4824396;29;20157;-62
2022/04/05 11:23:02;;;;;;;1.38;0.75;;;;;;;-148.16;100.00;58328.31;4824451;29;20111;-62
2022/04/05 11:25:47;;;;;;;1.25;0.50;;;;;;;-148.16;100.00;58328.31;4824290;29;20046;-64
2022/04/05 11:28:45;;;;;;;1.65;0.65;;;;;;;-148.16;100.00;58328.31;4824363;29;20123;-64
2022/04/05 11:31:39;;;;;;;0.98;0.70;;;;;;;-148.16;100.00;58328.31;4824323;29;20050;-62
2022/04/05 11:34:39;;;;;;;2.95;0.60;;;;;;;-148.16;100.00;58328.31;4824174;29;20069;-60
2022/04/05 11:37:34;;;;;;;1.00;0.52;;;;;;;-148.16;100.00;58328.31;4822807;29;20054;-62
2022/04/05 11:40:19;;;;;;;1.17;0.57;;;;;;;-148.16;100.00;58328.31;4824302;29;20072;-62
2022/04/05 11:43:04;;;;;;;1.25;0.73;;;;;;;-148.16;100.00;58328.31;4796962;29;20123;-62
2022/04/05 11:45:49;;;;;;;2.08;0.60;;;;;;;-148.16;100.00;58328.31;4805791;29;20043;-63
2022/04/05 11:48:34;;;;;;;1.38;0.77;;;;;;;-148.16;100.00;58328.31;4805282;29;20373;-63
2022/04/05 11:51:26;;;;;;;4.28;0.95;;;;;;;-148.16;100.00;58328.31;4805738;29;20491;-64
2022/04/05 11:54:14;;;;;;;1.55;0.80;;;;;;;-148.16;100.00;58328.31;4793611;29;20042;-60
2022/04/05 11:57:04;;;;;;;1.35;0.80;;;;;;;-148.16;100.00;58328.31;4805846;29;20054;-64
2022/04/05 12:00:07;;;;;;;1.08;0.70;;;;;;;-148.16;100.00;58328.31;4791663;29;20062;-66
2022/04/05 12:03:10;;;;;;;1.13;0.77;;;;;;;-148.16;100.00;58328.31;4805338;29;20046;-71
2022/04/05 12:05:56;;;;;;;1.90;1.20;;;;;;;-148.16;100.00;58328.31;4791907;29;20055;-70
2022/04/05 12:08:41;;;;;;;1.52;1.10;;;;;;;-148.16;100.00;58328.31;4823925;29;20430;-63
2022/04/05 12:11:30;;;;;;;1.95;0.93;;;;;;;-148.16;100.00;58328.31;4809952;29;20138;-69
2022/04/05 12:14:35;;;;;;;1.55;0.80;;;;;;;-148.16;100.00;58328.31;4824264;29;20046;-63
2022/04/05 12:17:25;;;;;;;1.45;0.77;;;;;;;-148.16;100.00;58328.31;4810479;29;20129;-60
2022/04/05 12:20:10;;;;;;;2.63;1.10;;;;;;;-148.16;100.00;58328.31;4810049;29;20402;-61
2022/04/05 12:22:55;;;;;;;2.03;0.90;;;;;;;-148.16;100.00;58328.31;4823192;29;20050;-61
2022/04/05 12:25:39;;;;;;;3.50;1.10;;;;;;;-148.16;100.00;58328.31;4809717;29;20078;-63
2022/04/05 12:28:24;;;;;;;1.67;0.93;;;;;;;-148.16;100.00;58328.31;4824057;29;20449;-63
2022/04/05 12:31:17;;;;;;;1.67;1.00;;;;;;;-148.16;100.00;58328.31;4823148;29;20081;-62
2022/04/05 12:34:13;;;;;;;1.75;1.13;;;;;;;-148.16;100.00;58328.31;4795110;29;20118;-60
2022/04/05 12:37:00;;;;;;;2.42;1.27;;;;;;;-148.16;100.00;58328.31;4823674;29;20050;-60
2022/04/05 12:39:46;;;;;;;1.88;0.93;;;;;;;-148.16;100.00;58328.31;4809552;29;20133;-62
2022/04/05 12:42:40;;;;;;;1.83;1.08;;;;;;;-148.16;100.00;58328.31;4809418;29;20054;-61
2022/04/05 12:45:27;;;;;;;1.98;1.02;;;;;;;-148.16;100.00;58328.31;4816887;29;20483;-66
2022/04/05 12:48:13;;;;;;;1.75;1.00;;;;;;;-148.16;100.00;58328.31;4804787;29;20050;-69
2022/04/05 12:50:58;;;;;;;1.45;1.00;;;;;;;-148.16;100.00;58328.31;4806872;29;20050;-63
2022/04/05 12:53:43;;;;;;;2.72;1.10;;;;;;;-148.16;100.00;58328.31;4804579;29;20088;-71
2022/04/05 12:56:29;;;;;;;2.00;1.33;;;;;;;-148.16;100.00;58328.31;4805074;29;20066;-64
2022/04/05 12:59:25;;;;;;;2.15;1.30;;;;;;;-148.16;100.00;58328.31;4804041;29;20055;-61
2022/04/05 13:02:25;;;;;;;2.50;1.27;;;;;;;-148.16;100.00;58328.31;4804208;29;20055;-62
2022/04/05 13:08:29;;;;;;;1.55;1.05;;;;;;;-148.16;100.00;58328.31;4806575;29;20090;-63
2022/04/05 13:11:29;;;;;;;1.70;1.00;;;;;;;-148.16;100.00;58328.31;4823135;29;20050;-63
2022/04/05 13:14:16;;;;;;;2.72;1.20;;;;;;;-148.16;100.00;58328.31;4823038;29;20563;-62
2022/04/05 13:17:02;;;;;;;1.90;1.02;;;;;;;-148.16;100.00;58328.31;4809080;29;20121;-62
2022/04/05 13:19:55;;;;;;;1.65;1.10;;;;;;;-148.16;100.00;58328.31;4822819;29;20154;-64
2022/04/05 13:22:40;;;;;;;2.00;1.40;;;;;;;-148.16;100.00;58328.31;4808935;29;20111;-62
2022/04/05 13:25:35;;;;;;;1.52;1.25;;;;;;;-148.16;100.00;58328.31;4825522;29;20081;-63
2022/04/05 13:28:20;;;;;;;2.75;1.33;;;;;;;-148.16;100.00;58328.31;4825678;29;20046;-64
2022/04/05 13:31:10;;;;;;;1.80;1.20;;;;;;;-148.16;100.00;58328.31;4825400;29;20124;-64
2022/04/05 13:33:54;;;;;;;1.75;1.13;;;;;;;-148.16;100.00;58328.31;4825254;29;20058;-62
2022/04/05 13:36:40;;;;;;;1.35;0.93;;;;;;;-148.16;100.00;58328.31;4799335;29;20474;-61
2022/04/05 13:39:32;;;;;;;2.03;0.70;;;;;;;-148.16;100.00;58328.31;4812424;29;20108;-64
2022/04/05 13:42:19;;;;;;;1.38;1.10;;;;;;;-148.16;100.00;58328.31;4800594;29;20057;-61
2022/04/05 13:45:31;;;;;;;1.40;0.80;;;;;;;-148.16;100.00;58328.31;4803086;29;20050;-63
2022/04/05 13:48:16;;;;;;;1.80;0.90;;;;;;;-148.16;100.00;58328.31;4825834;29;20103;-63
2022/04/05 13:51:04;;;;;;;1.15;0.82;;;;;;;-148.16;100.00;58328.31;4801052;29;20769;-63
2022/04/05 13:53:51;;;;;;;2.05;1.23;;;;;;;-148.16;100.00;58328.31;4825647;29;20229;-63
2022/04/05 13:56:36;;;;;;;1.88;1.10;;;;;;;-148.16;100.00;58328.31;4800004;29;20100;-63
2022/04/05 13:59:34;;;;;;;1.63;1.10;;;;;;;-148.16;100.00;58328.31;4795953;29;20397;-63
2022/04/05 14:02:18;;;;;;;3.03;1.00;;;;;;;-148.16;100.00;58328.31;4805971;29;20054;-63
2022/04/05 14:05:04;;;;;;;1.75;1.10;;;;;;;-148.16;100.00;58328.31;4805899;29;20054;-62
2022/04/05 14:07:49;;;;;;;1.35;1.13;;;;;;;-148.16;100.00;58328.31;4806899;29;20051;-60
2022/04/05 14:10:33;;;;;;;2.15;1.00;;;;;;;-148.16;100.00;58328.31;4772738;30;20132;-64
2022/04/05 14:13:18;;;;;;;1.85;1.33;;;;;;;-148.16;100.00;58328.31;4788216;30;20052;-65
2022/04/05 14:16:03;;;;;;;1.90;1.40;;;;;;;-148.16;100.00;58328.31;4789170;30;20082;-65
2022/04/05 14:18:48;;;;;;;2.15;1.30;;;;;;;-148.16;100.00;58328.31;4789296;30;20044;-61
2022/04/05 14:21:34;;;;;;;1.40;1.00;;;;;;;-148.16;100.00;58328.31;4788614;30;20055;-63
2022/04/05 14:24:22;;;;;;;1.58;1.00;;;;;;;-148.16;100.00;58328.31;4788291;29;20039;-60
2022/04/05 14:27:06;;;;;;;1.45;0.90;;;;;;;-148.16;100.00;58328.31;4788624;29;20043;-63
2022/04/05 14:29:52;;;;;;;1.67;1.30;;;;;;;-148.16;100.00;58328.31;4788383;29;20055;-62
2022/04/05 14:32:36;;;;;;;1.40;0.90;;;;;;;-148.16;100.00;58328.31;4788060;29;20055;-61
2022/04/05 14:35:22;;;;;;;1.63;1.25;;;;;;;-148.16;100.00;58328.31;4786758;29;20572;-62
2022/04/05 14:38:06;;;;;;;2.55;1.10;;;;;;;-148.16;100.00;58328.31;4788647;29;20094;-62
2022/04/05 14:40:52;;;;;;;1.50;1.00;;;;;;;-148.16;100.00;58328.31;4788212;29;20051;-61
2022/04/05 14:43:37;;;;;;;2.00;1.50;;;;;;;-148.16;100.00;58328.31;4788196;29;20048;-61
2022/04/05 14:46:21;;;;;;;1.85;1.25;;;;;;;-148.16;100.00;58328.31;4787802;29;20440;-61
2022/04/05 14:49:06;;;;;;;1.48;1.00;;;;;;;-148.16;100.00;58328.31;4807078;29;20157;-62
2022/04/05 14:51:52;;;;;;;3.45;1.27;;;;;;;-148.16;100.00;58328.31;4787567;30;20395;-64
2022/04/05 14:54:37;;;;;;;2.47;1.30;;;;;;;-148.16;100.00;58328.31;4800238;29;20158;-65
2022/04/05 14:57:22;;;;;;;1.13;0.98;;;;;;;-148.16;100.00;58328.31;4805613;29;20051;-64
2022/04/05 15:00:07;;;;;;;1.65;1.00;;;;;;;-148.16;100.00;58328.31;4817191;29;20119;-69
2022/04/05 15:02:52;;;;;;;2.30;1.50;;;;;;;-148.16;100.00;58328.31;4806711;29;20479;-68
2022/04/05 15:05:36;;;;;;;1.63;0.93;;;;;;;-148.16;100.00;58328.31;4806589;29;20043;-62
2022/04/05 15:08:21;;;;;;;2.22;1.05;;;;;;;-148.16;100.00;58328.31;4804993;29;20080;-68
2022/04/05 15:11:06;;;;;;;1.55;1.00;;;;;;;-148.16;100.00;58328.31;4808732;29;20082;-61
2022/04/05 15:13:51;;;;;;;1.67;1.20;;;;;;;-148.16;100.00;58328.31;4805423;29;20047;-60
2022/04/05 15:16:36;;;;;;;2.05;1.23;;;;;;;-148.16;100.00;58328.31;4803365;29;20074;-60
2022/04/05 15:19:24;;;;;;;3.97;1.23;;;;;;;-148.16;100.00;58328.31;4821137;29;20069;-60
2022/04/05 15:22:08;;;;;;;2.35;1.50;;;;;;;-148.16;100.00;58328.31;4824479;29;20070;-62
2022/04/05 15:24:54;;;;;;;2.83;1.58;;;;;;;-148.16;100.00;58328.31;4824225;29;20054;-59
2022/04/05 15:27:38;;;;;;;2.28;1.60;;;;;;;-148.16;100.00;58328.31;4824284;29;20055;-56
2022/04/05 15:30:32;;;;;;;2.88;1.55;;;;;;;-148.16;100.00;58328.31;4836202;29;20050;-54
2022/04/05 15:34:23;;;;;;;2.20;1.20;;;;;;;-148.16;100.00;58328.31;4802502;29;20468;-61
2022/04/05 15:37:47;;;;;;;1.85;1.38;;;;;;;-148.16;100.00;58328.31;4778770;29;20059;-59
2022/04/05 15:41:18;;;;;;;3.67;1.83;;;;;;;-148.16;100.00;58328.31;4778654;29;20466;-60
2022/04/05 15:44:03;;;;;;;3.15;1.70;;;;;;;-148.16;100.00;58328.31;4785500;29;20055;-59
2022/04/05 15:46:48;;;;;;;3.15;1.50;;;;;;;-148.16;100.00;58328.31;4785439;30;20146;-60
2022/04/05 15:49:33;;;;;;;2.17;1.45;;;;;;;-148.16;100.00;58328.31;4786936;30;20054;-61
2022/04/05 15:52:19;;;;;;;2.70;1.67;;;;;;;-148.16;100.00;58328.31;4785859;30;20055;-60
2022/04/05 15:55:05;;;;;;;2.55;1.40;;;;;;;-148.16;100.00;58328.31;4786989;30;20400;-60
2022/04/05 15:57:49;;;;;;;2.03;1.40;;;;;;;-148.16;100.00;58328.31;4786615;30;20102;-64
2022/04/05 16:00:36;;;;;;;2.25;1.60;;;;;;;-148.16;100.00;58328.31;4798862;29;20055;-62
2022/04/05 16:03:21;;;;;;;3.67;1.50;;;;;;;-148.16;100.00;58328.31;4805005;29;20067;-62
2022/04/05 16:06:07;;;;;;;2.33;1.58;;;;;;;-148.16;100.00;58328.31;4806578;29;20050;-61
2022/04/05 16:08:52;;;;;;;2.92;1.40;;;;;;;-148.16;100.00;58328.31;4791878;29;20055;-64
2022/04/05 16:11:37;;;;;;;2.10;1.30;;;;;;;-148.16;100.00;58328.31;4802901;29;20111;-61
2022/04/05 16:14:24;;;;;;;2.20;1.35;;;;;;;-148.16;100.00;58328.31;4806078;29;20058;-60
2022/04/05 16:17:09;;;;;;;1.85;1.30;;;;;;;-148.16;100.00;58328.31;4809006;29;20051;-60
2022/04/05 16:19:55;;;;;;;2.65;1.23;;;;;;;-148.16;100.00;58328.31;4822603;29;20047;-65
2022/04/05 16:22:40;;;;;;;1.95;1.08;;;;;;;-148.16;100.00;58328.31;4806817;29;20077;-61
2022/04/05 16:25:24;;;;;;;2.47;1.20;;;;;;;-148.16;100.00;58328.31;4804162;29;20524;-61
2022/04/05 16:28:09;;;;;;;1.75;1.05;;;;;;;-148.16;100.00;58328.31;4777859;29;20042;-61
2022/04/05 16:30:54;;;;;;;2.35;1.20;;;;;;;-148.16;100.00;58328.31;4789689;29;20051;-63
2022/04/05 16:33:39;;;;;;;2.53;1.27;;;;;;;-148.16;100.00;58328.31;4777700;29;20058;-59
2022/04/05 16:36:23;;;;;;;1.67;1.08;;;;;;;-148.16;100.00;58328.31;4803854;29;20047;-60
2022/04/05 16:39:07;;;;;;;1.50;0.80;;;;;;;-148.16;100.00;58328.31;4804748;29;20066;-62
2022/04/05 16:41:53;;;;;;;2.70;1.40;;;;;;;-148.16;100.00;58328.31;4798889;29;20481;-61
2022/04/05 16:44:38;;;;;;;1.55;1.13;;;;;;;-148.16;100.00;58328.31;4790490;29;20295;-60
2022/04/05 16:47:23;;;;;;;1.58;1.20;;;;;;;-148.16;100.00;58328.31;4791349;29;20171;-60
2022/04/05 16:50:08;;;;;;;1.80;1.15;;;;;;;-148.16;100.00;58328.31;4806022;29;20108;-59
2022/04/05 16:52:53;;;;;;;2.67;1.40;;;;;;;-148.16;100.00;58328.31;4803878;29;20046;-63
2022/04/05 16:55:43;;;;;;;2.88;1.20;;;;;;;-148.16;100.00;58328.31;4804142;29;20050;-67
2022/04/05 16:58:28;;;;;;;2.25;1.20;;;;;;;-148.16;100.00;58328.31;4806057;29;20047;-61
2022/04/05 17:01:17;;;;;;;1.75;1.10;;;;;;;-148.16;100.00;58328.31;4794079;29;20448;-63
2022/04/05 17:04:04;;;;;;;2.75;1.30;;;;;;;-148.16;100.00;58328.31;4809169;29;20142;-60
2022/04/05 17:06:50;;;;;;;2.92;1.17;;;;;;;-148.16;100.00;58328.31;4808959;29;20050;-61
2022/04/05 17:09:35;;;;;;;3.03;1.40;;;;;;;-148.16;100.00;58328.31;4796068;29;20082;-60
2022/04/05 17:12:21;;;;;;;3.38;1.40;;;;;;;-148.16;100.00;58328.31;4795881;29;20505;-60
2022/04/05 17:15:14;;;;;;;1.75;1.25;;;;;;;-148.16;100.00;58328.31;4794259;29;20057;-61
2022/04/05 17:17:58;;;;;;;2.25;1.38;;;;;;;-148.16;100.00;58328.31;4830826;29;20159;-60
2022/04/05 17:20:43;;;;;;;2.63;1.50;;;;;;;-148.16;100.00;58328.31;4843470;29;20046;-60
2022/04/05 17:23:28;;;;;;;1.85;1.27;;;;;;;-148.16;100.00;58328.31;4844322;29;20054;-61
2022/04/05 17:26:12;;;;;;;2.22;1.40;;;;;;;-148.16;100.00;58328.31;4844464;29;20062;-60
2022/04/05 17:28:58;;;;;;;2.72;1.45;;;;;;;-148.16;100.00;58328.31;4830606;29;20675;-60
2022/04/05 17:31:45;;;;;;;2.30;1.50;;;;;;;-148.16;100.00;58328.31;4830499;29;20506;-60
2022/04/05 17:34:32;;;;;;;2.10;1.20;;;;;;;-148.16;100.00;58328.31;4844345;29;20050;-60
2022/04/05 17:37:18;;;;;;;1.85;1.20;;;;;;;-148.16;100.00;58328.31;4830488;29;20046;-60
2022/04/05 17:40:05;;;;;;;2.50;1.33;;;;;;;-148.16;100.00;58328.31;4844665;29;20078;-60
2022/04/05 17:42:50;;;;;;;3.50;1.30;;;;;;;-148.16;100.00;58328.31;4830454;29;20045;-61
2022/04/05 17:45:35;;;;;;;2.28;1.33;;;;;;;-148.16;100.00;58328.31;4830232;29;20185;-59